sensor_id;sensor_type;location;lat;lon;timestamp;P1;durP1;ratioP1;P2;durP2;ratioP2
50309;SDS011;36207;51.850;21.698;2023-06-05T00:00:17;6.40;;;4.10;;
50309;SDS011;36207;51.850;21.698;2023-06-05T00:03:03;8.40;;;4.10;;
50309;SDS011;36207;51.850;21.698;2023-06-05T00:05:29;7.20;;;4.30;;
50309;SDS011;36207;51.850;21.698;2023-06-05T00:07:57;7.50;;;4.50;;
50309;SDS011;36207;51.850;21.698;2023-06-05T00:10:23;6.80;;;3.90;;
50309;SDS011;36207;51.850;21.698;2023-06-05T00:12:49;10.00;;;4.30;;
50309;SDS011;36207;51.850;21.698;2023-06-05T00:15:16;6.20;;;4.00;;
50309;SDS011;36207;51.850;21.698;2023-06-05T00:17:42;7.70;;;4.20;;
50309;SDS011;36207;51.850;21.698;2023-06-05T00:20:08;5.80;;;3.90;;
50309;SDS011;36207;51.850;21.698;2023-06-05T00:22:35;8.40;;;4.10;;
50309;SDS011;36207;51.850;21.698;2023-06-05T00:25:01;8.00;;;3.70;;
50309;SDS011;36207;51.850;21.698;2023-06-05T00:27:28;5.40;;;3.70;;
50309;SDS011;36207;51.850;21.698;2023-06-05T00:29:54;6.50;;;3.60;;
50309;SDS011;36207;51.850;21.698;2023-06-05T00:32:19;8.10;;;3.90;;
50309;SDS011;36207;51.850;21.698;2023-06-05T00:34:45;6.50;;;3.70;;
50309;SDS011;36207;51.850;21.698;2023-06-05T00:37:12;5.50;;;3.50;;
50309;SDS011;36207;51.850;21.698;2023-06-05T00:39:41;6.30;;;3.60;;
50309;SDS011;36207;51.850;21.698;2023-06-05T00:42:07;7.20;;;3.70;;
50309;SDS011;36207;51.850;21.698;2023-06-05T00:44:36;7.20;;;3.60;;
50309;SDS011;36207;51.850;21.698;2023-06-05T00:47:03;5.20;;;3.50;;
50309;SDS011;36207;51.850;21.698;2023-06-05T00:49:29;4.60;;;3.30;;
50309;SDS011;36207;51.850;21.698;2023-06-05T00:51:56;6.60;;;3.80;;
50309;SDS011;36207;51.850;21.698;2023-06-05T00:54:23;5.40;;;3.40;;
50309;SDS011;36207;51.850;21.698;2023-06-05T00:56:50;7.10;;;3.80;;
50309;SDS011;36207;51.850;21.698;2023-06-05T00:59:18;4.50;;;3.20;;
50309;SDS011;36207;51.850;21.698;2023-06-05T01:01:44;6.60;;;3.40;;
50309;SDS011;36207;51.850;21.698;2023-06-05T01:04:11;6.20;;;3.70;;
50309;SDS011;36207;51.850;21.698;2023-06-05T01:06:36;6.70;;;3.20;;
50309;SDS011;36207;51.850;21.698;2023-06-05T01:09:06;7.80;;;3.50;;
50309;SDS011;36207;51.850;21.698;2023-06-05T01:14:21;5.50;;;3.40;;
50309;SDS011;36207;51.850;21.698;2023-06-05T01:16:52;6.00;;;3.70;;
50309;SDS011;36207;51.850;21.698;2023-06-05T01:19:22;6.70;;;3.40;;
50309;SDS011;36207;51.850;21.698;2023-06-05T01:21:54;6.90;;;3.50;;
50309;SDS011;36207;51.850;21.698;2023-06-05T01:24:24;5.30;;;3.70;;
50309;SDS011;36207;51.850;21.698;2023-06-05T01:29:28;4.90;;;3.30;;
50309;SDS011;36207;51.850;21.698;2023-06-05T01:32:07;4.80;;;3.20;;
50309;SDS011;36207;51.850;21.698;2023-06-05T01:34:42;5.20;;;3.30;;
50309;SDS011;36207;51.850;21.698;2023-06-05T01:37:10;5.80;;;3.30;;
50309;SDS011;36207;51.850;21.698;2023-06-05T01:39:45;7.40;;;3.60;;
50309;SDS011;36207;51.850;21.698;2023-06-05T01:42:13;5.70;;;3.40;;
50309;SDS011;36207;51.850;21.698;2023-06-05T01:44:40;5.40;;;3.30;;
50309;SDS011;36207;51.850;21.698;2023-06-05T01:47:08;8.10;;;3.20;;
50309;SDS011;36207;51.850;21.698;2023-06-05T01:49:34;4.70;;;3.20;;
50309;SDS011;36207;51.850;21.698;2023-06-05T01:52:00;6.60;;;3.40;;
50309;SDS011;36207;51.850;21.698;2023-06-05T01:54:26;5.40;;;3.30;;
50309;SDS011;36207;51.850;21.698;2023-06-05T01:56:53;5.40;;;3.40;;
50309;SDS011;36207;51.850;21.698;2023-06-05T01:59:21;7.60;;;3.60;;
50309;SDS011;36207;51.850;21.698;2023-06-05T02:01:47;5.30;;;3.40;;
50309;SDS011;36207;51.850;21.698;2023-06-05T02:04:14;5.80;;;3.50;;
50309;SDS011;36207;51.850;21.698;2023-06-05T02:06:42;5.20;;;3.40;;
50309;SDS011;36207;51.850;21.698;2023-06-05T02:09:09;5.80;;;3.10;;
50309;SDS011;36207;51.850;21.698;2023-06-05T02:11:39;7.60;;;3.20;;
50309;SDS011;36207;51.850;21.698;2023-06-05T02:14:05;5.10;;;3.10;;
50309;SDS011;36207;51.850;21.698;2023-06-05T02:16:32;5.20;;;3.40;;
50309;SDS011;36207;51.850;21.698;2023-06-05T02:18:59;7.30;;;3.40;;
50309;SDS011;36207;51.850;21.698;2023-06-05T02:21:29;4.80;;;2.90;;
50309;SDS011;36207;51.850;21.698;2023-06-05T02:23:59;6.40;;;3.50;;
50309;SDS011;36207;51.850;21.698;2023-06-05T02:26:26;4.40;;;3.10;;
50309;SDS011;36207;51.850;21.698;2023-06-05T02:28:52;6.40;;;3.30;;
50309;SDS011;36207;51.850;21.698;2023-06-05T02:31:21;7.60;;;3.30;;
50309;SDS011;36207;51.850;21.698;2023-06-05T02:33:53;5.10;;;3.30;;
50309;SDS011;36207;51.850;21.698;2023-06-05T02:36:21;5.10;;;3.20;;
50309;SDS011;36207;51.850;21.698;2023-06-05T02:38:49;6.00;;;3.20;;
50309;SDS011;36207;51.850;21.698;2023-06-05T02:41:16;4.70;;;3.40;;
50309;SDS011;36207;51.850;21.698;2023-06-05T02:43:42;5.10;;;3.30;;
50309;SDS011;36207;51.850;21.698;2023-06-05T02:46:10;7.40;;;3.50;;
50309;SDS011;36207;51.850;21.698;2023-06-05T02:48:37;6.60;;;3.30;;
50309;SDS011;36207;51.850;21.698;2023-06-05T02:51:03;5.30;;;3.10;;
50309;SDS011;36207;51.850;21.698;2023-06-05T02:53:29;7.20;;;3.30;;
50309;SDS011;36207;51.850;21.698;2023-06-05T02:55:55;5.20;;;3.40;;
50309;SDS011;36207;51.850;21.698;2023-06-05T02:58:21;5.10;;;3.50;;
50309;SDS011;36207;51.850;21.698;2023-06-05T03:00:47;6.90;;;3.60;;
50309;SDS011;36207;51.850;21.698;2023-06-05T03:03:16;5.50;;;3.50;;
50309;SDS011;36207;51.850;21.698;2023-06-05T03:05:42;6.00;;;3.40;;
50309;SDS011;36207;51.850;21.698;2023-06-05T03:08:09;7.30;;;3.30;;
50309;SDS011;36207;51.850;21.698;2023-06-05T03:10:36;5.00;;;3.40;;
50309;SDS011;36207;51.850;21.698;2023-06-05T03:13:02;6.80;;;3.40;;
50309;SDS011;36207;51.850;21.698;2023-06-05T03:15:28;5.20;;;3.30;;
50309;SDS011;36207;51.850;21.698;2023-06-05T03:17:54;5.70;;;3.30;;
50309;SDS011;36207;51.850;21.698;2023-06-05T03:20:20;6.80;;;3.50;;
50309;SDS011;36207;51.850;21.698;2023-06-05T03:22:46;5.00;;;3.30;;
50309;SDS011;36207;51.850;21.698;2023-06-05T03:25:12;7.30;;;3.20;;
50309;SDS011;36207;51.850;21.698;2023-06-05T03:27:38;5.30;;;3.10;;
50309;SDS011;36207;51.850;21.698;2023-06-05T03:30:04;6.60;;;3.70;;
50309;SDS011;36207;51.850;21.698;2023-06-05T03:32:30;5.60;;;3.30;;
50309;SDS011;36207;51.850;21.698;2023-06-05T03:34:57;4.80;;;3.20;;
50309;SDS011;36207;51.850;21.698;2023-06-05T03:37:23;6.60;;;3.80;;
50309;SDS011;36207;51.850;21.698;2023-06-05T03:39:49;7.50;;;3.40;;
50309;SDS011;36207;51.850;21.698;2023-06-05T03:42:15;4.70;;;3.10;;
50309;SDS011;36207;51.850;21.698;2023-06-05T03:44:41;6.20;;;3.30;;
50309;SDS011;36207;51.850;21.698;2023-06-05T03:47:07;5.50;;;3.50;;
50309;SDS011;36207;51.850;21.698;2023-06-05T03:49:33;4.40;;;3.30;;
50309;SDS011;36207;51.850;21.698;2023-06-05T03:52:01;7.00;;;3.60;;
50309;SDS011;36207;51.850;21.698;2023-06-05T03:54:28;5.20;;;3.10;;
50309;SDS011;36207;51.850;21.698;2023-06-05T03:56:54;5.20;;;3.30;;
50309;SDS011;36207;51.850;21.698;2023-06-05T03:59:21;7.90;;;3.60;;
50309;SDS011;36207;51.850;21.698;2023-06-05T04:01:48;6.80;;;3.40;;
50309;SDS011;36207;51.850;21.698;2023-06-05T04:04:14;7.20;;;3.50;;
50309;SDS011;36207;51.850;21.698;2023-06-05T04:06:40;7.20;;;3.50;;
50309;SDS011;36207;51.850;21.698;2023-06-05T04:09:07;5.90;;;3.70;;
50309;SDS011;36207;51.850;21.698;2023-06-05T04:11:42;5.90;;;3.60;;
50309;SDS011;36207;51.850;21.698;2023-06-05T04:14:09;9.00;;;4.20;;
50309;SDS011;36207;51.850;21.698;2023-06-05T04:16:36;6.70;;;3.80;;
50309;SDS011;36207;51.850;21.698;2023-06-05T04:19:09;7.20;;;3.80;;
50309;SDS011;36207;51.850;21.698;2023-06-05T04:21:37;5.50;;;3.70;;
50309;SDS011;36207;51.850;21.698;2023-06-05T04:24:04;6.70;;;3.50;;
50309;SDS011;36207;51.850;21.698;2023-06-05T04:26:33;7.10;;;3.70;;
50309;SDS011;36207;51.850;21.698;2023-06-05T04:29:00;8.40;;;3.90;;
50309;SDS011;36207;51.850;21.698;2023-06-05T04:31:35;6.70;;;4.00;;
50309;SDS011;36207;51.850;21.698;2023-06-05T04:34:06;8.00;;;4.00;;
50309;SDS011;36207;51.850;21.698;2023-06-05T04:36:34;6.20;;;4.00;;
50309;SDS011;36207;51.850;21.698;2023-06-05T04:39:02;10.30;;;5.20;;
50309;SDS011;36207;51.850;21.698;2023-06-05T04:41:32;6.40;;;4.20;;
50309;SDS011;36207;51.850;21.698;2023-06-05T04:44:00;11.70;;;4.10;;
50309;SDS011;36207;51.850;21.698;2023-06-05T04:46:26;9.50;;;4.00;;
50309;SDS011;36207;51.850;21.698;2023-06-05T04:48:52;11.70;;;3.80;;
50309;SDS011;36207;51.850;21.698;2023-06-05T04:51:21;7.10;;;3.80;;
50309;SDS011;36207;51.850;21.698;2023-06-05T04:53:47;7.90;;;3.60;;
50309;SDS011;36207;51.850;21.698;2023-06-05T04:56:19;7.60;;;3.70;;
50309;SDS011;36207;51.850;21.698;2023-06-05T04:58:48;7.50;;;3.10;;
50309;SDS011;36207;51.850;21.698;2023-06-05T05:01:16;4.40;;;2.70;;
50309;SDS011;36207;51.850;21.698;2023-06-05T05:03:42;4.90;;;2.80;;
50309;SDS011;36207;51.850;21.698;2023-06-05T05:06:08;4.30;;;2.70;;
50309;SDS011;36207;51.850;21.698;2023-06-05T05:08:36;4.00;;;2.70;;
50309;SDS011;36207;51.850;21.698;2023-06-05T05:11:02;6.80;;;3.10;;
50309;SDS011;36207;51.850;21.698;2023-06-05T05:13:28;4.10;;;2.80;;
50309;SDS011;36207;51.850;21.698;2023-06-05T05:15:54;4.70;;;2.70;;
50309;SDS011;36207;51.850;21.698;2023-06-05T05:18:20;3.30;;;2.70;;
50309;SDS011;36207;51.850;21.698;2023-06-05T05:20:46;6.10;;;3.10;;
50309;SDS011;36207;51.850;21.698;2023-06-05T05:23:13;4.40;;;2.70;;
50309;SDS011;36207;51.850;21.698;2023-06-05T05:25:40;4.20;;;2.60;;
50309;SDS011;36207;51.850;21.698;2023-06-05T05:28:05;5.40;;;2.90;;
50309;SDS011;36207;51.850;21.698;2023-06-05T05:30:32;5.30;;;2.40;;
50309;SDS011;36207;51.850;21.698;2023-06-05T05:32:59;6.40;;;2.60;;
50309;SDS011;36207;51.850;21.698;2023-06-05T05:35:25;5.20;;;2.60;;
50309;SDS011;36207;51.850;21.698;2023-06-05T05:37:50;5.30;;;2.30;;
50309;SDS011;36207;51.850;21.698;2023-06-05T05:40:16;4.70;;;2.80;;
50309;SDS011;36207;51.850;21.698;2023-06-05T05:42:42;4.20;;;3.00;;
50309;SDS011;36207;51.850;21.698;2023-06-05T05:45:08;3.90;;;2.50;;
50309;SDS011;36207;51.850;21.698;2023-06-05T05:47:34;5.00;;;2.70;;
50309;SDS011;36207;51.850;21.698;2023-06-05T05:50:00;5.20;;;3.00;;
50309;SDS011;36207;51.850;21.698;2023-06-05T05:52:26;4.90;;;2.30;;
50309;SDS011;36207;51.850;21.698;2023-06-05T05:54:52;6.00;;;2.50;;
50309;SDS011;36207;51.850;21.698;2023-06-05T05:57:18;4.10;;;2.30;;
50309;SDS011;36207;51.850;21.698;2023-06-05T05:59:44;4.10;;;2.40;;
50309;SDS011;36207;51.850;21.698;2023-06-05T06:02:12;6.10;;;2.40;;
50309;SDS011;36207;51.850;21.698;2023-06-05T06:04:38;4.50;;;2.40;;
50309;SDS011;36207;51.850;21.698;2023-06-05T06:07:05;4.80;;;2.40;;
50309;SDS011;36207;51.850;21.698;2023-06-05T06:09:31;4.90;;;2.30;;
50309;SDS011;36207;51.850;21.698;2023-06-05T06:11:58;3.20;;;2.20;;
50309;SDS011;36207;51.850;21.698;2023-06-05T06:14:28;4.80;;;2.40;;
50309;SDS011;36207;51.850;21.698;2023-06-05T06:16:54;4.30;;;2.20;;
50309;SDS011;36207;51.850;21.698;2023-06-05T06:19:21;4.40;;;2.20;;
50309;SDS011;36207;51.850;21.698;2023-06-05T06:21:49;3.90;;;2.20;;
50309;SDS011;36207;51.850;21.698;2023-06-05T06:24:17;4.60;;;2.00;;
50309;SDS011;36207;51.850;21.698;2023-06-05T06:26:48;5.40;;;2.60;;
50309;SDS011;36207;51.850;21.698;2023-06-05T06:29:17;3.20;;;2.10;;
50309;SDS011;36207;51.850;21.698;2023-06-05T06:31:44;6.10;;;2.30;;
50309;SDS011;36207;51.850;21.698;2023-06-05T06:34:10;10.70;;;2.20;;
50309;SDS011;36207;51.850;21.698;2023-06-05T06:36:36;3.40;;;2.10;;
50309;SDS011;36207;51.850;21.698;2023-06-05T06:39:06;6.10;;;1.90;;
50309;SDS011;36207;51.850;21.698;2023-06-05T06:41:36;7.40;;;1.80;;
50309;SDS011;36207;51.850;21.698;2023-06-05T06:44:02;2.30;;;1.90;;
50309;SDS011;36207;51.850;21.698;2023-06-05T06:46:29;8.10;;;1.80;;
50309;SDS011;36207;51.850;21.698;2023-06-05T06:48:56;2.30;;;1.50;;
50309;SDS011;36207;51.850;21.698;2023-06-05T06:51:23;8.10;;;2.00;;
50309;SDS011;36207;51.850;21.698;2023-06-05T06:53:49;3.50;;;1.30;;
50309;SDS011;36207;51.850;21.698;2023-06-05T06:56:15;2.60;;;1.50;;
50309;SDS011;36207;51.850;21.698;2023-06-05T06:58:43;2.10;;;1.20;;
50309;SDS011;36207;51.850;21.698;2023-06-05T07:01:11;8.20;;;1.80;;
50309;SDS011;36207;51.850;21.698;2023-06-05T07:03:38;5.80;;;2.10;;
50309;SDS011;36207;51.850;21.698;2023-06-05T07:06:05;4.80;;;1.60;;
50309;SDS011;36207;51.850;21.698;2023-06-05T07:08:32;6.40;;;1.90;;
50309;SDS011;36207;51.850;21.698;2023-06-05T07:10:58;5.10;;;1.60;;
50309;SDS011;36207;51.850;21.698;2023-06-05T07:13:24;5.70;;;1.80;;
50309;SDS011;36207;51.850;21.698;2023-06-05T07:15:51;2.80;;;1.30;;
50309;SDS011;36207;51.850;21.698;2023-06-05T07:18:17;4.40;;;1.60;;
50309;SDS011;36207;51.850;21.698;2023-06-05T07:20:45;2.30;;;1.40;;
50309;SDS011;36207;51.850;21.698;2023-06-05T07:23:11;2.80;;;1.40;;
50309;SDS011;36207;51.850;21.698;2023-06-05T07:25:37;4.30;;;2.00;;
50309;SDS011;36207;51.850;21.698;2023-06-05T07:28:09;4.90;;;1.50;;
50309;SDS011;36207;51.850;21.698;2023-06-05T07:30:37;3.70;;;1.50;;
50309;SDS011;36207;51.850;21.698;2023-06-05T07:33:03;4.70;;;1.40;;
50309;SDS011;36207;51.850;21.698;2023-06-05T07:35:29;4.50;;;1.70;;
50309;SDS011;36207;51.850;21.698;2023-06-05T07:37:55;4.70;;;1.40;;
50309;SDS011;36207;51.850;21.698;2023-06-05T07:40:21;2.20;;;1.50;;
50309;SDS011;36207;51.850;21.698;2023-06-05T07:42:47;1.70;;;1.30;;
50309;SDS011;36207;51.850;21.698;2023-06-05T07:45:13;2.20;;;1.40;;
50309;SDS011;36207;51.850;21.698;2023-06-05T07:47:39;2.60;;;1.30;;
50309;SDS011;36207;51.850;21.698;2023-06-05T07:50:05;2.40;;;1.30;;
50309;SDS011;36207;51.850;21.698;2023-06-05T07:52:32;2.90;;;1.30;;
50309;SDS011;36207;51.850;21.698;2023-06-05T07:54:59;2.60;;;1.30;;
50309;SDS011;36207;51.850;21.698;2023-06-05T07:57:25;3.10;;;1.60;;
50309;SDS011;36207;51.850;21.698;2023-06-05T07:59:51;3.60;;;1.60;;
50309;SDS011;36207;51.850;21.698;2023-06-05T08:02:18;2.50;;;1.40;;
50309;SDS011;36207;51.850;21.698;2023-06-05T08:04:44;5.60;;;1.40;;
50309;SDS011;36207;51.850;21.698;2023-06-05T08:07:10;2.70;;;1.20;;
50309;SDS011;36207;51.850;21.698;2023-06-05T08:09:37;2.90;;;1.40;;
50309;SDS011;36207;51.850;21.698;2023-06-05T08:12:03;3.30;;;1.10;;
50309;SDS011;36207;51.850;21.698;2023-06-05T08:14:29;4.00;;;1.30;;
50309;SDS011;36207;51.850;21.698;2023-06-05T08:16:55;2.90;;;1.40;;
50309;SDS011;36207;51.850;21.698;2023-06-05T08:19:21;2.40;;;1.20;;
50309;SDS011;36207;51.850;21.698;2023-06-05T08:21:51;2.10;;;1.40;;
50309;SDS011;36207;51.850;21.698;2023-06-05T08:24:20;2.60;;;1.00;;
50309;SDS011;36207;51.850;21.698;2023-06-05T08:26:46;2.30;;;1.30;;
50309;SDS011;36207;51.850;21.698;2023-06-05T08:29:11;3.70;;;1.40;;
50309;SDS011;36207;51.850;21.698;2023-06-05T08:31:37;4.40;;;1.40;;
50309;SDS011;36207;51.850;21.698;2023-06-05T08:34:04;3.50;;;1.30;;
50309;SDS011;36207;51.850;21.698;2023-06-05T08:36:31;3.20;;;1.50;;
50309;SDS011;36207;51.850;21.698;2023-06-05T08:38:58;2.30;;;1.50;;
50309;SDS011;36207;51.850;21.698;2023-06-05T08:41:25;4.30;;;1.50;;
50309;SDS011;36207;51.850;21.698;2023-06-05T08:43:51;3.50;;;1.30;;
50309;SDS011;36207;51.850;21.698;2023-06-05T08:46:17;3.30;;;1.50;;
50309;SDS011;36207;51.850;21.698;2023-06-05T08:48:48;2.70;;;1.50;;
50309;SDS011;36207;51.850;21.698;2023-06-05T08:51:19;5.60;;;1.60;;
50309;SDS011;36207;51.850;21.698;2023-06-05T08:53:54;4.00;;;1.70;;
50309;SDS011;36207;51.850;21.698;2023-06-05T08:56:23;5.90;;;1.50;;
50309;SDS011;36207;51.850;21.698;2023-06-05T08:58:51;3.90;;;1.60;;
50309;SDS011;36207;51.850;21.698;2023-06-05T09:01:19;4.30;;;1.90;;
50309;SDS011;36207;51.850;21.698;2023-06-05T09:03:45;5.30;;;1.60;;
50309;SDS011;36207;51.850;21.698;2023-06-05T09:06:11;1.80;;;1.50;;
50309;SDS011;36207;51.850;21.698;2023-06-05T09:08:37;2.70;;;1.50;;
50309;SDS011;36207;51.850;21.698;2023-06-05T09:11:28;1.70;;;1.30;;
50309;SDS011;36207;51.850;21.698;2023-06-05T09:13:56;1.90;;;1.30;;
50309;SDS011;36207;51.850;21.698;2023-06-05T09:16:36;2.80;;;1.50;;
50309;SDS011;36207;51.850;21.698;2023-06-05T09:19:03;3.00;;;1.40;;
50309;SDS011;36207;51.850;21.698;2023-06-05T09:21:30;4.00;;;1.50;;
50309;SDS011;36207;51.850;21.698;2023-06-05T09:26:47;5.60;;;1.60;;
50309;SDS011;36207;51.850;21.698;2023-06-05T09:29:13;6.00;;;1.80;;
50309;SDS011;36207;51.850;21.698;2023-06-05T09:31:42;2.70;;;1.70;;
50309;SDS011;36207;51.850;21.698;2023-06-05T09:34:08;2.60;;;1.50;;
50309;SDS011;36207;51.850;21.698;2023-06-05T09:36:33;3.80;;;1.50;;
50309;SDS011;36207;51.850;21.698;2023-06-05T09:39:21;3.80;;;1.90;;
50309;SDS011;36207;51.850;21.698;2023-06-05T09:41:47;3.40;;;1.60;;
50309;SDS011;36207;51.850;21.698;2023-06-05T09:44:15;2.70;;;1.70;;
50309;SDS011;36207;51.850;21.698;2023-06-05T09:46:49;2.60;;;1.50;;
50309;SDS011;36207;51.850;21.698;2023-06-05T09:49:19;1.70;;;1.30;;
50309;SDS011;36207;51.850;21.698;2023-06-05T09:51:46;3.80;;;1.70;;
50309;SDS011;36207;51.850;21.698;2023-06-05T09:54:13;2.90;;;1.60;;
50309;SDS011;36207;51.850;21.698;2023-06-05T09:56:46;6.90;;;1.60;;
50309;SDS011;36207;51.850;21.698;2023-06-05T09:59:19;7.40;;;1.30;;
50309;SDS011;36207;51.850;21.698;2023-06-05T10:01:50;2.90;;;1.40;;
50309;SDS011;36207;51.850;21.698;2023-06-05T10:04:20;3.70;;;1.40;;
50309;SDS011;36207;51.850;21.698;2023-06-05T10:06:51;2.20;;;1.60;;
50309;SDS011;36207;51.850;21.698;2023-06-05T10:09:20;2.80;;;1.30;;
50309;SDS011;36207;51.850;21.698;2023-06-05T10:11:50;2.60;;;1.60;;
50309;SDS011;36207;51.850;21.698;2023-06-05T10:14:17;1.60;;;1.50;;
50309;SDS011;36207;51.850;21.698;2023-06-05T10:16:45;2.80;;;1.70;;
50309;SDS011;36207;51.850;21.698;2023-06-05T10:19:16;3.40;;;1.40;;
50309;SDS011;36207;51.850;21.698;2023-06-05T10:21:46;3.60;;;1.60;;
50309;SDS011;36207;51.850;21.698;2023-06-05T10:38:45;2.30;;;1.30;;
50309;SDS011;36207;51.850;21.698;2023-06-05T10:41:11;4.90;;;1.50;;
50309;SDS011;36207;51.850;21.698;2023-06-05T10:46:34;3.50;;;1.50;;
50309;SDS011;36207;51.850;21.698;2023-06-05T10:51:34;2.20;;;1.60;;
50309;SDS011;36207;51.850;21.698;2023-06-05T10:54:04;5.50;;;1.70;;
50309;SDS011;36207;51.850;21.698;2023-06-05T10:59:21;2.70;;;1.60;;
50309;SDS011;36207;51.850;21.698;2023-06-05T11:07:14;3.00;;;1.40;;
50309;SDS011;36207;51.850;21.698;2023-06-05T11:10:03;2.30;;;1.70;;
50309;SDS011;36207;51.850;21.698;2023-06-05T11:15:04;2.20;;;1.20;;
50309;SDS011;36207;51.850;21.698;2023-06-05T11:17:43;1.60;;;1.40;;
50309;SDS011;36207;51.850;21.698;2023-06-05T11:27:50;5.00;;;2.20;;
50309;SDS011;36207;51.850;21.698;2023-06-05T11:30:21;3.80;;;1.70;;
50309;SDS011;36207;51.850;21.698;2023-06-05T11:32:49;3.10;;;1.60;;
50309;SDS011;36207;51.850;21.698;2023-06-05T11:35:26;4.80;;;1.70;;
50309;SDS011;36207;51.850;21.698;2023-06-05T11:38:09;5.60;;;1.60;;
50309;SDS011;36207;51.850;21.698;2023-06-05T11:40:37;3.10;;;1.70;;
50309;SDS011;36207;51.850;21.698;2023-06-05T11:43:07;2.50;;;1.80;;
50309;SDS011;36207;51.850;21.698;2023-06-05T11:45:35;1.90;;;1.50;;
50309;SDS011;36207;51.850;21.698;2023-06-05T11:48:03;2.30;;;1.80;;
50309;SDS011;36207;51.850;21.698;2023-06-05T11:50:33;14.20;;;2.40;;
50309;SDS011;36207;51.850;21.698;2023-06-05T11:53:04;2.40;;;1.70;;
50309;SDS011;36207;51.850;21.698;2023-06-05T11:55:35;2.50;;;1.70;;
50309;SDS011;36207;51.850;21.698;2023-06-05T11:58:31;2.70;;;1.70;;
50309;SDS011;36207;51.850;21.698;2023-06-05T12:01:10;3.30;;;1.70;;
50309;SDS011;36207;51.850;21.698;2023-06-05T12:03:41;2.30;;;1.70;;
50309;SDS011;36207;51.850;21.698;2023-06-05T12:06:07;2.50;;;1.60;;
50309;SDS011;36207;51.850;21.698;2023-06-05T12:08:34;4.70;;;1.90;;
50309;SDS011;36207;51.850;21.698;2023-06-05T12:11:02;4.20;;;2.20;;
50309;SDS011;36207;51.850;21.698;2023-06-05T12:16:34;3.00;;;1.90;;
50309;SDS011;36207;51.850;21.698;2023-06-05T12:19:02;2.80;;;1.70;;
50309;SDS011;36207;51.850;21.698;2023-06-05T12:21:37;2.40;;;1.50;;
50309;SDS011;36207;51.850;21.698;2023-06-05T12:24:04;2.80;;;1.70;;
50309;SDS011;36207;51.850;21.698;2023-06-05T12:26:47;4.20;;;1.90;;
50309;SDS011;36207;51.850;21.698;2023-06-05T12:29:20;3.40;;;1.50;;
50309;SDS011;36207;51.850;21.698;2023-06-05T12:31:48;2.70;;;1.80;;
50309;SDS011;36207;51.850;21.698;2023-06-05T12:34:14;3.30;;;1.60;;
50309;SDS011;36207;51.850;21.698;2023-06-05T12:36:41;5.50;;;2.00;;
50309;SDS011;36207;51.850;21.698;2023-06-05T12:39:09;2.90;;;2.10;;
50309;SDS011;36207;51.850;21.698;2023-06-05T12:41:36;2.80;;;1.80;;
50309;SDS011;36207;51.850;21.698;2023-06-05T12:44:03;7.80;;;1.80;;
50309;SDS011;36207;51.850;21.698;2023-06-05T12:46:30;5.20;;;1.90;;
50309;SDS011;36207;51.850;21.698;2023-06-05T12:48:58;3.50;;;1.70;;
50309;SDS011;36207;51.850;21.698;2023-06-05T12:51:27;4.60;;;2.10;;
50309;SDS011;36207;51.850;21.698;2023-06-05T12:53:54;3.60;;;1.70;;
50309;SDS011;36207;51.850;21.698;2023-06-05T12:56:24;6.50;;;1.80;;
50309;SDS011;36207;51.850;21.698;2023-06-05T12:58:53;3.20;;;1.80;;
50309;SDS011;36207;51.850;21.698;2023-06-05T13:01:23;4.40;;;1.50;;
50309;SDS011;36207;51.850;21.698;2023-06-05T13:03:51;3.00;;;2.20;;
50309;SDS011;36207;51.850;21.698;2023-06-05T13:06:18;3.40;;;1.80;;
50309;SDS011;36207;51.850;21.698;2023-06-05T13:08:44;2.50;;;1.80;;
50309;SDS011;36207;51.850;21.698;2023-06-05T13:11:12;3.60;;;1.60;;
50309;SDS011;36207;51.850;21.698;2023-06-05T13:13:39;2.20;;;1.60;;
50309;SDS011;36207;51.850;21.698;2023-06-05T13:16:05;4.40;;;1.60;;
50309;SDS011;36207;51.850;21.698;2023-06-05T13:18:33;2.50;;;1.60;;
50309;SDS011;36207;51.850;21.698;2023-06-05T13:21:01;4.50;;;1.70;;
50309;SDS011;36207;51.850;21.698;2023-06-05T13:23:30;4.10;;;1.70;;
50309;SDS011;36207;51.850;21.698;2023-06-05T13:25:57;3.70;;;2.20;;
50309;SDS011;36207;51.850;21.698;2023-06-05T13:28:25;2.60;;;1.80;;
50309;SDS011;36207;51.850;21.698;2023-06-05T13:30:51;2.20;;;1.60;;
50309;SDS011;36207;51.850;21.698;2023-06-05T13:33:19;5.20;;;2.00;;
50309;SDS011;36207;51.850;21.698;2023-06-05T13:35:45;2.40;;;1.60;;
50309;SDS011;36207;51.850;21.698;2023-06-05T13:38:11;3.40;;;1.90;;
50309;SDS011;36207;51.850;21.698;2023-06-05T13:40:37;2.30;;;1.70;;
50309;SDS011;36207;51.850;21.698;2023-06-05T13:43:23;2.80;;;1.70;;
50309;SDS011;36207;51.850;21.698;2023-06-05T13:45:50;4.50;;;2.00;;
50309;SDS011;36207;51.850;21.698;2023-06-05T13:48:16;2.20;;;2.00;;
50309;SDS011;36207;51.850;21.698;2023-06-05T13:50:43;3.00;;;2.00;;
50309;SDS011;36207;51.850;21.698;2023-06-05T13:53:12;2.20;;;1.70;;
50309;SDS011;36207;51.850;21.698;2023-06-05T13:55:38;2.40;;;1.70;;
50309;SDS011;36207;51.850;21.698;2023-06-05T13:58:05;6.20;;;1.70;;
50309;SDS011;36207;51.850;21.698;2023-06-05T14:00:32;4.30;;;2.00;;
50309;SDS011;36207;51.850;21.698;2023-06-05T14:02:58;3.90;;;1.70;;
50309;SDS011;36207;51.850;21.698;2023-06-05T14:05:25;4.10;;;1.70;;
50309;SDS011;36207;51.850;21.698;2023-06-05T14:07:52;2.90;;;1.90;;
50309;SDS011;36207;51.850;21.698;2023-06-05T14:10:19;5.00;;;2.20;;
50309;SDS011;36207;51.850;21.698;2023-06-05T14:12:46;3.30;;;2.00;;
50309;SDS011;36207;51.850;21.698;2023-06-05T14:15:13;3.30;;;1.90;;
50309;SDS011;36207;51.850;21.698;2023-06-05T14:17:39;3.50;;;1.90;;
50309;SDS011;36207;51.850;21.698;2023-06-05T14:20:05;2.30;;;1.90;;
50309;SDS011;36207;51.850;21.698;2023-06-05T14:22:32;4.40;;;1.80;;
50309;SDS011;36207;51.850;21.698;2023-06-05T14:24:58;4.20;;;1.70;;
50309;SDS011;36207;51.850;21.698;2023-06-05T14:27:25;6.80;;;2.00;;
50309;SDS011;36207;51.850;21.698;2023-06-05T14:29:51;3.70;;;2.10;;
50309;SDS011;36207;51.850;21.698;2023-06-05T14:32:17;3.70;;;1.70;;
50309;SDS011;36207;51.850;21.698;2023-06-05T14:34:43;3.20;;;2.10;;
50309;SDS011;36207;51.850;21.698;2023-06-05T14:37:20;4.80;;;1.90;;
50309;SDS011;36207;51.850;21.698;2023-06-05T14:39:46;5.20;;;2.00;;
50309;SDS011;36207;51.850;21.698;2023-06-05T14:42:32;4.70;;;1.70;;
50309;SDS011;36207;51.850;21.698;2023-06-05T14:44:59;2.90;;;1.90;;
50309;SDS011;36207;51.850;21.698;2023-06-05T14:47:25;3.60;;;1.60;;
50309;SDS011;36207;51.850;21.698;2023-06-05T14:49:51;3.50;;;2.10;;
50309;SDS011;36207;51.850;21.698;2023-06-05T14:52:16;4.50;;;1.90;;
50309;SDS011;36207;51.850;21.698;2023-06-05T14:54:43;4.40;;;1.80;;
50309;SDS011;36207;51.850;21.698;2023-06-05T14:57:10;8.80;;;2.10;;
50309;SDS011;36207;51.850;21.698;2023-06-05T14:59:36;3.40;;;1.80;;
50309;SDS011;36207;51.850;21.698;2023-06-05T15:02:02;3.50;;;1.70;;
50309;SDS011;36207;51.850;21.698;2023-06-05T15:04:28;5.10;;;1.80;;
50309;SDS011;36207;51.850;21.698;2023-06-05T15:06:55;2.50;;;1.90;;
50309;SDS011;36207;51.850;21.698;2023-06-05T15:09:21;2.90;;;1.70;;
50309;SDS011;36207;51.850;21.698;2023-06-05T15:11:48;2.70;;;1.80;;
50309;SDS011;36207;51.850;21.698;2023-06-05T15:14:16;3.40;;;1.90;;
50309;SDS011;36207;51.850;21.698;2023-06-05T15:16:42;4.40;;;1.70;;
50309;SDS011;36207;51.850;21.698;2023-06-05T15:19:08;5.20;;;1.90;;
50309;SDS011;36207;51.850;21.698;2023-06-05T15:21:35;4.60;;;1.80;;
50309;SDS011;36207;51.850;21.698;2023-06-05T15:24:01;2.50;;;1.70;;
50309;SDS011;36207;51.850;21.698;2023-06-05T15:26:28;2.90;;;1.60;;